createdAt,value
2019-03-31T00:00:35.987Z,27.60
2019-03-31T00:03:05.715Z,26.80
2019-03-31T00:05:37.272Z,27.90
2019-03-31T00:08:06.529Z,26.33
2019-03-31T00:10:36.093Z,27.77
2019-03-31T00:13:05.625Z,29.30
2019-03-31T00:15:35.230Z,29.90
2019-03-31T00:18:04.807Z,29.43
2019-03-31T00:20:34.285Z,29.50
2019-03-31T00:23:03.825Z,29.80
2019-03-31T00:25:34.050Z,28.73
2019-03-31T00:28:03.502Z,26.67
2019-03-31T00:30:33.069Z,25.47
2019-03-31T00:33:02.632Z,28.90
2019-03-31T00:35:32.088Z,31.67
2019-03-31T00:38:01.575Z,32.07
2019-03-31T00:40:31.008Z,27.83
2019-03-31T00:43:00.543Z,35.03
2019-03-31T00:45:30.015Z,32.90
2019-03-31T00:47:59.512Z,34.83
2019-03-31T00:50:28.990Z,34.43
2019-03-31T00:52:58.547Z,33.97
2019-03-31T00:55:28.024Z,35.00
2019-03-31T00:57:57.588Z,35.37
2019-03-31T01:00:48.781Z,35.20
2019-03-31T01:03:20.922Z,34.53
2019-03-31T01:05:50.483Z,38.90
2019-03-31T01:08:20.553Z,37.83
2019-03-31T01:10:50.144Z,38.03
2019-03-31T01:13:20.427Z,39.73
2019-03-31T01:15:50.728Z,39.90
2019-03-31T01:18:20.426Z,41.10
2019-03-31T01:20:50.011Z,39.97
2019-03-31T01:23:19.510Z,38.23
2019-03-31T01:25:48.966Z,42.23
2019-03-31T01:28:18.585Z,41.53
2019-03-31T01:30:48.257Z,40.43
2019-03-31T01:33:18.518Z,42.13
2019-03-31T01:35:47.975Z,43.73
2019-03-31T01:38:17.356Z,44.50
2019-03-31T01:40:47.544Z,42.30
2019-03-31T01:43:16.995Z,43.80
2019-03-31T01:45:46.614Z,42.40
2019-03-31T01:48:16.153Z,41.03
2019-03-31T01:50:45.887Z,44.17
2019-03-31T01:53:15.392Z,41.77
2019-03-31T01:55:45.538Z,43.47
2019-03-31T01:58:15.338Z,42.37
2019-03-31T02:00:55.369Z,45.87
2019-03-31T02:03:25.081Z,42.77
2019-03-31T02:05:54.587Z,42.63
2019-03-31T02:08:24.180Z,41.70
2019-03-31T02:10:53.683Z,42.97
2019-03-31T02:13:23.170Z,43.90
2019-03-31T02:15:52.745Z,44.13
2019-03-31T02:18:22.284Z,43.63
2019-03-31T02:20:51.845Z,45.30
2019-03-31T02:23:21.313Z,42.33
2019-03-31T02:25:50.844Z,42.70
2019-03-31T02:28:20.338Z,43.33
2019-03-31T02:30:49.939Z,43.90
2019-03-31T02:33:19.387Z,45.27
2019-03-31T02:35:49.024Z,41.77
2019-03-31T02:38:18.541Z,43.87
2019-03-31T02:40:47.898Z,42.93
2019-03-31T02:43:17.454Z,44.53
2019-03-31T02:45:47.020Z,40.53
2019-03-31T02:48:16.473Z,43.43
2019-03-31T02:50:51.710Z,42.93
2019-03-31T02:53:25.093Z,43.00
2019-03-31T02:55:56.149Z,44.87
2019-03-31T02:58:26.144Z,42.37
2019-03-31T03:00:56.149Z,41.47
2019-03-31T03:03:26.147Z,43.70
2019-03-31T03:05:58.886Z,43.13
2019-03-31T03:08:30.747Z,42.77
2019-03-31T03:11:02.719Z,44.17
2019-03-31T03:13:35.593Z,44.57
2019-03-31T03:16:15.130Z,44.37
2019-03-31T03:18:46.375Z,44.27
2019-03-31T03:21:16.371Z,43.03
2019-03-31T03:23:45.814Z,42.13
2019-03-31T03:26:15.540Z,43.63
2019-03-31T03:28:45.056Z,47.73
2019-03-31T03:31:16.519Z,47.10
2019-03-31T03:33:46.293Z,46.47
2019-03-31T03:36:16.176Z,46.03
2019-03-31T03:38:45.843Z,44.80
2019-03-31T03:41:15.515Z,48.03
2019-03-31T03:43:54.908Z,46.47
2019-03-31T03:46:16.469Z,48.93
2019-03-31T03:48:46.277Z,46.03
2019-03-31T03:51:16.106Z,49.03
2019-03-31T03:53:45.588Z,50.47
2019-03-31T03:56:15.140Z,47.93
2019-03-31T03:58:44.592Z,46.07
2019-03-31T04:01:15.685Z,49.73
2019-03-31T04:03:45.237Z,46.30
2019-03-31T04:06:14.853Z,45.50
2019-03-31T04:08:44.367Z,49.13
2019-03-31T04:11:21.925Z,45.73
2019-03-31T04:13:51.845Z,47.20
2019-03-31T04:16:21.511Z,47.17
2019-03-31T04:18:51.049Z,47.83
2019-03-31T04:21:20.699Z,47.37
2019-03-31T04:23:50.285Z,51.27
2019-03-31T04:26:19.980Z,47.63
2019-03-31T04:28:49.511Z,49.50
2019-03-31T04:31:19.058Z,50.80
2019-03-31T04:33:52.117Z,48.27
2019-03-31T04:36:19.766Z,47.63
2019-03-31T04:38:49.394Z,49.10
2019-03-31T04:41:19.120Z,50.57
2019-03-31T04:43:48.580Z,50.07
2019-03-31T04:46:18.125Z,50.33
2019-03-31T04:48:47.582Z,48.63
2019-03-31T04:51:17.284Z,50.63
2019-03-31T04:53:46.748Z,48.43
2019-03-31T04:56:16.355Z,48.83
2019-03-31T04:58:45.931Z,46.20
2019-03-31T05:01:15.559Z,48.60
2019-03-31T05:03:45.043Z,45.20
2019-03-31T05:06:14.536Z,49.40
2019-03-31T05:08:44.031Z,47.13
2019-03-31T05:11:13.555Z,48.90
2019-03-31T05:13:43.073Z,50.00
2019-03-31T05:16:12.617Z,49.00
2019-03-31T05:18:42.127Z,47.63
2019-03-31T05:21:11.397Z,47.73
2019-03-31T05:23:40.878Z,49.10
2019-03-31T05:26:10.498Z,46.50
2019-03-31T05:28:40.026Z,48.27
2019-03-31T05:31:09.491Z,45.03
2019-03-31T05:33:39.033Z,46.80
2019-03-31T05:36:08.554Z,41.47
2019-03-31T05:38:38.040Z,43.60
2019-03-31T05:41:07.652Z,42.17
2019-03-31T05:43:37.219Z,43.27
2019-03-31T05:46:06.721Z,42.53
2019-03-31T05:48:36.325Z,43.50
2019-03-31T05:51:05.733Z,41.33
2019-03-31T05:53:35.325Z,40.30
2019-03-31T05:56:05.244Z,38.43
2019-03-31T05:58:34.711Z,37.57
2019-03-31T06:01:04.327Z,36.20
2019-03-31T06:03:33.800Z,38.63
2019-03-31T06:06:03.285Z,38.73
2019-03-31T06:08:32.790Z,37.90
2019-03-31T06:11:02.559Z,36.50
2019-03-31T06:13:32.050Z,37.50
2019-03-31T06:16:01.531Z,36.50
2019-03-31T06:18:31.060Z,37.80
2019-03-31T06:21:00.638Z,38.27
2019-03-31T06:23:30.132Z,37.00
2019-03-31T06:26:00.016Z,36.60
2019-03-31T06:28:29.550Z,35.93
2019-03-31T06:30:59.001Z,36.03
2019-03-31T06:33:28.448Z,35.63
2019-03-31T06:35:57.918Z,35.90
2019-03-31T06:38:27.376Z,35.70
2019-03-31T06:40:58.209Z,35.83
2019-03-31T06:43:27.685Z,36.20
2019-03-31T06:45:57.160Z,36.43
2019-03-31T06:48:26.648Z,37.13
2019-03-31T06:50:56.084Z,36.13
2019-03-31T06:53:25.626Z,37.93
2019-03-31T06:55:55.338Z,35.80
2019-03-31T06:58:24.895Z,36.67
2019-03-31T07:00:54.430Z,34.67
2019-03-31T07:03:23.954Z,36.27
2019-03-31T07:05:53.440Z,34.73
2019-03-31T07:08:22.922Z,35.53
2019-03-31T07:10:52.418Z,34.70
2019-03-31T07:13:21.961Z,37.33
2019-03-31T07:15:51.469Z,37.17
2019-03-31T07:18:20.930Z,34.90
2019-03-31T07:20:51.043Z,34.10
2019-03-31T07:23:20.501Z,34.20
2019-03-31T07:25:49.985Z,33.40
2019-03-31T07:28:19.450Z,33.03
2019-03-31T07:30:48.974Z,32.47
2019-03-31T07:33:18.607Z,30.83
2019-03-31T07:35:48.149Z,32.13
2019-03-31T07:38:17.775Z,32.33
2019-03-31T07:40:47.675Z,32.50
2019-03-31T07:43:17.563Z,31.23
2019-03-31T07:45:47.102Z,32.17
2019-03-31T07:48:16.585Z,30.93
2019-03-31T07:50:46.115Z,29.47
2019-03-31T07:53:15.559Z,30.73
2019-03-31T07:55:45.046Z,29.30
2019-03-31T07:58:14.486Z,29.37
2019-03-31T08:00:43.986Z,30.20
2019-03-31T08:03:13.451Z,31.27
2019-03-31T08:05:43.030Z,31.10
2019-03-31T08:08:12.500Z,29.40
2019-03-31T08:10:41.935Z,30.00
2019-03-31T08:13:11.415Z,30.10
2019-03-31T08:15:40.909Z,30.67
2019-03-31T08:18:10.464Z,29.20
2019-03-31T08:20:40.019Z,30.30
2019-03-31T08:23:09.455Z,29.03
2019-03-31T08:25:38.948Z,28.97
2019-03-31T08:28:08.433Z,29.50
2019-03-31T08:30:37.935Z,31.77
2019-03-31T08:33:07.441Z,30.10
2019-03-31T08:35:47.369Z,29.00
2019-03-31T08:38:08.126Z,31.23
2019-03-31T08:40:37.596Z,29.20
2019-03-31T08:43:07.077Z,28.37
2019-03-31T08:45:36.586Z,29.93
2019-03-31T08:48:06.095Z,29.67
2019-03-31T08:50:35.530Z,28.03
2019-03-31T08:53:05.172Z,26.37
2019-03-31T08:55:34.739Z,27.53
2019-03-31T08:58:04.307Z,27.33
2019-03-31T09:00:41.469Z,24.97
2019-03-31T09:03:10.911Z,24.50
2019-03-31T09:05:40.346Z,22.93
2019-03-31T09:08:09.820Z,24.73
2019-03-31T09:10:39.275Z,23.40
2019-03-31T09:13:08.754Z,22.50
2019-03-31T09:15:38.234Z,21.10
2019-03-31T09:18:07.745Z,22.20
2019-03-31T09:20:37.232Z,20.50
2019-03-31T09:23:06.729Z,21.50
2019-03-31T09:25:36.183Z,19.13
2019-03-31T09:28:05.721Z,20.00
2019-03-31T09:30:35.332Z,19.23
2019-03-31T09:33:04.991Z,18.73
2019-03-31T09:35:34.535Z,18.93
2019-03-31T09:38:04.055Z,18.03
2019-03-31T09:40:33.552Z,18.23
2019-03-31T09:43:03.145Z,18.57
2019-03-31T09:45:32.667Z,17.23
2019-03-31T09:48:02.169Z,16.00
2019-03-31T09:50:31.596Z,16.27
2019-03-31T09:53:01.043Z,16.20
2019-03-31T09:55:30.777Z,16.13
2019-03-31T09:58:00.341Z,16.40
2019-03-31T10:00:48.142Z,15.13
2019-03-31T10:03:18.392Z,15.07
2019-03-31T10:05:48.461Z,14.27
2019-03-31T10:08:21.801Z,14.83
2019-03-31T10:10:49.770Z,13.20
2019-03-31T10:13:19.268Z,12.87
2019-03-31T10:15:48.839Z,13.17
2019-03-31T10:18:18.600Z,12.00
2019-03-31T10:20:48.057Z,13.10
2019-03-31T10:23:17.606Z,10.70
2019-03-31T10:25:47.177Z,11.17
2019-03-31T10:28:16.659Z,10.70
2019-03-31T10:30:46.144Z,10.80
2019-03-31T10:33:15.739Z,11.27
2019-03-31T10:35:45.199Z,10.10
2019-03-31T10:38:14.731Z,11.30
2019-03-31T10:40:44.288Z,9.90
2019-03-31T10:43:13.742Z,10.27
2019-03-31T10:45:43.230Z,9.70
2019-03-31T10:48:20.468Z,9.30
2019-03-31T10:50:44.253Z,9.07
2019-03-31T10:53:13.877Z,9.87
2019-03-31T10:55:43.450Z,9.67
2019-03-31T10:58:12.925Z,8.77
2019-03-31T11:00:44.458Z,10.27
2019-03-31T11:03:13.605Z,10.60
2019-03-31T11:05:43.307Z,9.97
2019-03-31T11:08:12.954Z,10.50
2019-03-31T11:10:42.419Z,10.57
2019-03-31T11:13:11.975Z,10.13
2019-03-31T11:15:41.448Z,9.80
2019-03-31T11:18:11.026Z,10.13
2019-03-31T11:20:40.655Z,10.07
2019-03-31T11:23:23.739Z,9.50
2019-03-31T11:25:53.291Z,10.10
2019-03-31T11:28:23.047Z,9.77
2019-03-31T11:30:52.508Z,10.40
2019-03-31T11:33:21.990Z,9.90
2019-03-31T11:35:51.632Z,10.63
2019-03-31T11:38:21.122Z,10.17
2019-03-31T11:40:50.650Z,10.53
2019-03-31T11:43:20.139Z,11.97
2019-03-31T11:45:49.827Z,11.90
2019-03-31T11:48:19.286Z,10.87
2019-03-31T11:50:48.823Z,11.17
2019-03-31T11:53:18.283Z,11.80
2019-03-31T11:55:47.767Z,10.57
2019-03-31T11:58:17.371Z,11.67
2019-03-31T12:00:48.533Z,11.70
2019-03-31T12:03:18.056Z,11.27
2019-03-31T12:05:47.621Z,11.00
2019-03-31T12:08:17.181Z,10.70
2019-03-31T12:10:46.668Z,10.70
2019-03-31T12:13:16.231Z,11.67
2019-03-31T12:15:45.695Z,11.50
2019-03-31T12:18:15.171Z,10.80
2019-03-31T12:20:44.807Z,10.30
2019-03-31T12:23:14.425Z,9.57
2019-03-31T12:25:43.921Z,9.77
2019-03-31T12:28:13.458Z,8.80
2019-03-31T12:30:42.940Z,10.00
2019-03-31T12:33:12.531Z,10.47
2019-03-31T12:35:42.033Z,9.87
2019-03-31T12:38:13.068Z,10.80
2019-03-31T12:40:42.622Z,11.23
2019-03-31T12:43:12.017Z,10.97
2019-03-31T12:45:43.263Z,10.60
2019-03-31T12:48:12.944Z,10.67
2019-03-31T12:50:42.511Z,10.53
2019-03-31T12:53:12.082Z,9.67
2019-03-31T12:55:41.660Z,8.73
2019-03-31T12:58:11.172Z,8.03
2019-03-31T13:00:40.688Z,8.37
2019-03-31T13:03:10.306Z,8.00
2019-03-31T13:05:39.906Z,8.27
2019-03-31T13:08:09.560Z,8.33
2019-03-31T13:10:39.134Z,7.60
2019-03-31T13:13:08.831Z,8.33
2019-03-31T13:15:38.870Z,9.03
2019-03-31T13:18:08.464Z,7.80
2019-03-31T13:20:38.094Z,7.43
2019-03-31T13:23:07.751Z,7.33
2019-03-31T13:25:37.370Z,6.90
2019-03-31T13:28:07.010Z,7.50
2019-03-31T13:30:36.619Z,7.83
2019-03-31T13:33:06.237Z,7.13
2019-03-31T13:35:35.885Z,6.90
2019-03-31T13:38:11.384Z,6.60
2019-03-31T13:40:39.052Z,6.97
2019-03-31T13:43:08.513Z,5.97
2019-03-31T13:45:38.173Z,6.17
2019-03-31T13:48:07.750Z,6.50
2019-03-31T13:50:37.286Z,6.33
2019-03-31T13:53:06.879Z,6.73
2019-03-31T13:55:36.408Z,5.73
2019-03-31T13:58:08.229Z,6.37
2019-03-31T14:00:40.428Z,6.90
2019-03-31T14:03:10.230Z,6.17
2019-03-31T14:05:40.140Z,6.37
2019-03-31T14:08:09.749Z,5.90
2019-03-31T14:10:39.296Z,6.00
2019-03-31T14:13:08.878Z,5.43
2019-03-31T14:15:38.432Z,6.40
2019-03-31T14:18:08.091Z,6.20
2019-03-31T14:20:37.661Z,6.17
2019-03-31T14:23:07.217Z,6.27
2019-03-31T14:25:36.823Z,6.17
2019-03-31T14:28:06.309Z,5.97
2019-03-31T14:30:35.810Z,6.13
2019-03-31T14:33:05.225Z,6.30
2019-03-31T14:35:37.903Z,6.57
2019-03-31T14:38:05.961Z,6.23
2019-03-31T14:40:35.470Z,6.40
2019-03-31T14:43:05.052Z,6.70
2019-03-31T14:45:35.836Z,6.50
2019-03-31T14:48:06.138Z,6.37
2019-03-31T14:50:37.749Z,6.60
2019-03-31T14:53:07.842Z,6.50
2019-03-31T14:55:37.373Z,5.90
2019-03-31T14:58:08.283Z,6.03
2019-03-31T15:00:38.318Z,5.97
2019-03-31T15:03:07.972Z,6.60
2019-03-31T15:05:37.507Z,5.93
2019-03-31T15:08:07.024Z,5.90
2019-03-31T15:10:36.577Z,6.10
2019-03-31T15:13:06.110Z,5.77
2019-03-31T15:15:35.648Z,5.07
2019-03-31T15:18:05.381Z,4.70
2019-03-31T15:20:34.944Z,4.93
2019-03-31T15:23:04.488Z,4.60
2019-03-31T15:25:34.151Z,5.20
2019-03-31T15:28:03.775Z,5.30
2019-03-31T15:30:33.468Z,4.83
2019-03-31T15:33:03.033Z,4.43
2019-03-31T15:35:32.622Z,4.10
2019-03-31T15:38:02.144Z,3.57
2019-03-31T15:40:31.708Z,3.77
2019-03-31T15:43:01.182Z,3.90
2019-03-31T15:45:30.700Z,3.90
2019-03-31T15:48:00.328Z,3.77
2019-03-31T15:50:29.876Z,3.80
2019-03-31T15:52:59.505Z,3.70
2019-03-31T15:55:29.109Z,3.90
2019-03-31T15:57:58.717Z,3.87
2019-03-31T16:00:28.480Z,3.73
2019-03-31T16:02:58.017Z,3.40
2019-03-31T16:05:27.716Z,3.27
2019-03-31T16:07:57.148Z,3.77
2019-03-31T16:10:26.702Z,3.77
2019-03-31T16:12:56.241Z,3.80
2019-03-31T16:15:25.873Z,3.73
2019-03-31T16:17:55.330Z,4.53
2019-03-31T16:20:24.956Z,4.20
2019-03-31T16:22:54.545Z,4.20
2019-03-31T16:25:28.317Z,3.93
2019-03-31T16:27:57.870Z,4.43
2019-03-31T16:30:27.379Z,4.97
2019-03-31T16:32:56.901Z,5.90
2019-03-31T16:35:26.440Z,5.97
2019-03-31T16:37:55.979Z,6.10
2019-03-31T16:40:25.490Z,5.73
2019-03-31T16:42:54.988Z,6.00
2019-03-31T16:45:26.100Z,5.60
2019-03-31T16:47:55.623Z,4.70
2019-03-31T16:50:25.188Z,4.80
2019-03-31T16:52:54.646Z,4.80
2019-03-31T16:55:24.163Z,5.30
2019-03-31T16:57:53.672Z,4.77
2019-03-31T17:00:23.226Z,4.97
2019-03-31T17:02:52.644Z,4.90
2019-03-31T17:05:22.694Z,4.97
2019-03-31T17:07:52.202Z,4.93
2019-03-31T17:10:21.745Z,4.80
2019-03-31T17:12:51.246Z,4.80
2019-03-31T17:15:20.813Z,4.70
2019-03-31T17:17:50.269Z,4.43
2019-03-31T17:20:19.907Z,4.93
2019-03-31T17:22:49.452Z,4.73
2019-03-31T17:25:19.004Z,4.90
2019-03-31T17:27:48.528Z,5.10
2019-03-31T17:30:18.296Z,5.00
2019-03-31T17:32:47.747Z,4.20
2019-03-31T17:35:17.277Z,4.43
2019-03-31T17:37:46.864Z,4.20
2019-03-31T17:40:17.182Z,4.20
2019-03-31T17:42:46.688Z,4.47
2019-03-31T17:45:17.434Z,4.90
2019-03-31T17:47:46.932Z,4.50
2019-03-31T17:50:16.549Z,4.70
2019-03-31T17:52:46.428Z,4.90
2019-03-31T17:55:16.019Z,4.87
2019-03-31T17:57:45.689Z,4.63
2019-03-31T18:00:15.385Z,4.87
2019-03-31T18:02:44.817Z,4.90
2019-03-31T18:05:14.470Z,4.43
2019-03-31T18:07:43.925Z,4.67
2019-03-31T18:10:20.857Z,4.70
2019-03-31T18:12:44.931Z,4.43
2019-03-31T18:15:14.947Z,4.23
2019-03-31T18:17:44.930Z,4.43
2019-03-31T18:20:14.627Z,4.53
2019-03-31T18:22:44.094Z,4.80
2019-03-31T18:25:14.188Z,4.60
2019-03-31T18:27:43.678Z,4.67
2019-03-31T18:30:14.618Z,4.70
2019-03-31T18:32:43.897Z,4.53
2019-03-31T18:35:16.627Z,4.43
2019-03-31T18:37:45.003Z,5.00
2019-03-31T18:40:14.976Z,4.03
2019-03-31T18:42:44.505Z,4.90
2019-03-31T18:45:14.173Z,4.60
2019-03-31T18:47:43.664Z,4.60
2019-03-31T18:50:13.472Z,4.53
2019-03-31T18:52:43.020Z,4.50
2019-03-31T18:55:14.361Z,4.23
2019-03-31T18:57:48.457Z,4.40
2019-03-31T19:00:19.820Z,4.30
2019-03-31T19:03:05.781Z,4.03
2019-03-31T19:05:36.962Z,4.23
2019-03-31T19:08:08.090Z,4.60
2019-03-31T19:10:55.132Z,4.47
2019-03-31T19:13:54.793Z,4.23
2019-03-31T19:16:30.418Z,4.27
2019-03-31T19:19:04.074Z,4.70
2019-03-31T19:21:51.470Z,4.83
2019-03-31T19:24:22.594Z,4.57
2019-03-31T19:27:10.020Z,4.80
2019-03-31T19:29:41.120Z,4.10
2019-03-31T19:32:21.369Z,4.10
2019-03-31T19:34:52.484Z,4.10
2019-03-31T19:37:39.860Z,4.33
2019-03-31T19:40:14.012Z,3.70
2019-03-31T19:42:45.285Z,3.87
2019-03-31T19:45:28.580Z,4.43
2019-03-31T19:48:11.656Z,3.80
2019-03-31T19:50:48.614Z,3.90
2019-03-31T19:53:31.932Z,3.20
2019-03-31T19:56:07.816Z,3.37
2019-03-31T20:01:18.656Z,3.40
2019-03-31T20:03:55.436Z,3.90
2019-03-31T20:06:32.411Z,3.47
2019-03-31T20:09:06.281Z,3.03
2019-03-31T20:11:37.417Z,3.03
2019-03-31T20:14:14.316Z,3.60
2019-03-31T20:16:48.051Z,3.10
2019-03-31T20:19:19.132Z,3.20
2019-03-31T20:22:06.628Z,3.50
2019-03-31T20:24:46.377Z,3.60
2019-03-31T20:27:17.497Z,3.00
2019-03-31T20:29:54.419Z,3.50
2019-03-31T20:32:25.528Z,2.90
2019-03-31T20:35:02.359Z,3.30
2019-03-31T20:37:36.305Z,2.83
2019-03-31T20:40:09.200Z,2.80
2019-03-31T20:42:58.318Z,3.60
2019-03-31T20:45:27.779Z,2.77
2019-03-31T20:47:57.321Z,2.83
2019-03-31T20:50:26.813Z,2.57
2019-03-31T20:52:56.255Z,2.80
2019-03-31T20:55:25.741Z,2.63
2019-03-31T20:57:55.277Z,2.77
2019-03-31T21:00:24.843Z,2.70
2019-03-31T21:02:54.335Z,2.90
2019-03-31T21:05:23.826Z,3.00
2019-03-31T21:07:53.352Z,3.10
2019-03-31T21:10:22.868Z,3.13
2019-03-31T21:12:53.422Z,2.70
2019-03-31T21:15:23.063Z,3.10
2019-03-31T21:17:52.554Z,2.93
2019-03-31T21:20:22.020Z,2.73
2019-03-31T21:22:51.558Z,2.67
2019-03-31T21:25:21.050Z,2.50
2019-03-31T21:27:50.661Z,2.60
2019-03-31T21:30:20.872Z,2.90
2019-03-31T21:32:50.390Z,2.43
2019-03-31T21:35:19.980Z,2.33
2019-03-31T21:37:49.552Z,2.50
2019-03-31T21:40:19.046Z,2.43
2019-03-31T21:42:48.513Z,3.20
2019-03-31T21:45:18.162Z,2.73
2019-03-31T21:47:47.672Z,2.63
2019-03-31T21:50:17.325Z,2.60
2019-03-31T21:52:46.896Z,3.10
2019-03-31T21:55:16.474Z,3.00
2019-03-31T21:57:45.981Z,2.80
2019-03-31T22:00:16.854Z,2.33
2019-03-31T22:02:46.445Z,2.57
2019-03-31T22:05:16.116Z,2.40
2019-03-31T22:07:45.611Z,2.40
2019-03-31T22:10:15.362Z,3.27
2019-03-31T22:12:44.859Z,2.43
2019-03-31T22:15:14.763Z,3.03
2019-03-31T22:17:44.376Z,2.60
2019-03-31T22:20:14.029Z,2.73
2019-03-31T22:22:43.508Z,2.67
2019-03-31T22:25:13.161Z,2.50
2019-03-31T22:27:42.615Z,2.40
2019-03-31T22:30:12.482Z,2.30
2019-03-31T22:32:42.030Z,2.20
2019-03-31T22:35:11.617Z,2.10
2019-03-31T22:37:41.108Z,3.03
2019-03-31T22:40:10.955Z,2.40
2019-03-31T22:42:40.423Z,2.20
2019-03-31T22:45:10.173Z,2.80
2019-03-31T22:47:39.587Z,2.40
2019-03-31T22:50:09.182Z,1.93
2019-03-31T22:52:38.658Z,2.00
2019-03-31T22:55:08.350Z,2.20
2019-03-31T22:57:37.922Z,2.57
2019-03-31T23:00:09.663Z,2.33
2019-03-31T23:02:39.176Z,2.13
2019-03-31T23:05:08.793Z,2.10
2019-03-31T23:07:38.248Z,2.00
2019-03-31T23:10:07.953Z,1.83
2019-03-31T23:12:37.437Z,2.30
2019-03-31T23:15:08.699Z,1.77
2019-03-31T23:17:38.203Z,2.20
2019-03-31T23:20:12.096Z,2.20
2019-03-31T23:22:39.163Z,2.27
2019-03-31T23:25:08.936Z,2.23
2019-03-31T23:27:38.388Z,2.20
2019-03-31T23:30:10.840Z,2.50
2019-03-31T23:32:40.246Z,2.30
2019-03-31T23:35:10.003Z,2.10
2019-03-31T23:37:39.439Z,2.43
2019-03-31T23:40:09.148Z,2.27
2019-03-31T23:42:38.643Z,2.27
2019-03-31T23:45:09.110Z,2.43
2019-03-31T23:47:38.581Z,2.30
2019-03-31T23:50:08.138Z,2.33
2019-03-31T23:52:39.144Z,2.10
2019-03-31T23:55:08.669Z,2.30
2019-03-31T23:57:42.560Z,2.13
